Detall de PIREP

Printer-friendly versionPDF version

[2013/10/08 09:10:00]
Flight IATA:CT2207
Pilot Number:042
Company ICAO:CAT
Aircraft Type:F70/A
PAX:17
Aircraft Registration:PFJ
Departing Airport: LFSB
Destination Airport: LFMP
Alternate Airport:LFBO
Online: VATSIM
Route:LUMEL T10 TORPA V40 LUL G4 RLP G21 MOU A27 CFA A27 MEN A27 SIJAN
Flight Level:F190
No Slew and time accel
No pause
Crash detect
Detect pilot in Cockpit between each 30 and 45 minutes
09:10 Zero fuel Weight: 72667 Lbs, Fuel Weight: 22689 Lbs
09:10 VATSIM:LFSB 080900Z VRB03KT 2500 -DZ BR BKN006 BKN010 12/11 Q1025 NOSIG
09:10 VATSIM:LFMP 080900Z 31007KT 270V340 9999 FEW060 21/10 Q1023 NOSIG
09:10 VOICE CATALONIAN
09:16 Parking Brakes off
09:23 Take-off
09:23 Take off Weight: 94833 Lbs
09:23 Wind: 139º @ 009 Knots Heading: 155º
09:23 POS N47º 36´ 06´´ E007º 31´ 14´´
09:23 Gear Up: 161 Knots
09:23 Flaps:2 at 161 Knots
09:23 Flaps:1 at 177 Knots
09:24 Flaps:0 at 201 Knots
09:31 TOC
09:31 Fuel Weight: 20932 Lb
09:38 Wind:334º@058 Knots Heading: 292º Ground Speed: 361 Knots Altitude 18848 ft
09:53 Wind:329º@055 Knots Heading: 229º Ground Speed: 417 Knots Altitude 18825 ft
10:08 Wind:323º@051 Knots Heading: 184º Ground Speed: 445 Knots Altitude 18782 ft
10:17 TOD
10:17 Fuel Weight: 16478 Lb
10:23 Wind:320º@047 Knots Heading: 192º Ground Speed: 416 Knots Altitude 15006 ft
10:34 Flaps:1 at 206 Knots
10:35 Flaps:2 at 186 Knots
10:36 Gear Down: 173 Knots
10:36 Flaps:3 at 173 Knots
10:38 Wind:000º@002 Knots Heading: 328º Ground Speed: 157 Knots Altitude 1479 ft
10:39 TouchDown:Rate -186 ft/min Speed: 132 Knots
10:40 VATSIM:LFMP 081023Z 33008KT 290V020 9999 FEW060 22/10 Q1022 NOSIG
10:40 Land
10:40 Wind:000º@002 Knots
10:40 Heading: 329º
10:40 Flight Duration: 01:17
10:40 Landing Weight: 87865 Lbs
10:40 POS N42º 45´ 00´´ E002º 51´ 54´´
10:45 Parking brakes on
10:45 Block to Block Duration: 01:29
10:45 Final Fuel: 14977 Lbls
10:45 Spent Fuel: 7711 Lbls
10:45 Flight Length: 469 NM
10:45 TOD Land Length: 117 NM

Exportar CSV

Powered by Drupal - Modified by Danger4k